Hattiesburg, MS (39401)

8:46 PM CDT on September 15, 2014 (GMT -0500)
KC4ZSS_Foresthills subdivision | Change Station
CLOSE
Current Station
Personal Weather Station
Location: Hattiesburg, MS
Elevation: 348 ft
Nearby Weather Stations

Elev 348 ft 31.28 °N, 89.37 °W | Updated 45 seconds ago

Mostly Cloudy
Mostly Cloudy
77.7 °F
Feels Like 80 °F
N
0.0
Wind Variable Wind from SSW

Today
High -- | Low -- °F
--% Chance of Precip.
Yesterday
High -- | Low -- °F
Precip. -- in
6:41 AM 7:02 PM
Waning Gibbous, 50% visible
Pressure 30.08 in
Visibility 10.0 miles
Clouds Few 3500 ft
Scattered Clouds 4200 ft
Mostly Cloudy 4800 ft
Heat Index 80 °F
Dew Point 72 °F
Humidity 84%
Rainfall 0.00 in
Snow Depth Not available.
UV 0 out of 12
Pollen 9.00 out of 12
Air Quality Not available.
Flu Activity Not available.
METAR KHBG 160053Z AUTO 20003KT 10SM FEW035 SCT042 BKN048 28/23 A3008 RMK AO2 LTG DSNT S SLP184 T02780228

More Conditions Fewer Conditions

Pressure 30.08 in
Visibility 10.0 miles
Clouds Few 3500 ft
Scattered Clouds 4200 ft
Mostly Cloudy 4800 ft
Heat Index 80 °F
Dew Point 72 °F
Humidity 84%
Rainfall 0.00 in
Snow Depth Not available.
UV 0 out of 12
Pollen 9.00 out of 12
Air Quality Not available.
Flu Activity Not available.
METAR KHBG 160053Z AUTO 20003KT 10SM FEW035 SCT042 BKN048 28/23 A3008 RMK AO2 LTG DSNT S SLP184 T02780228

More Conditions Fewer Conditions

10-Day Weather Forecast

Almanac

Astronomy

Sep. 15, 2014 Rise Set
Actual Time 6:41 AM CDT 7:02 PM CDT
Civil Twilight 6:16 AM CDT 7:27 PM CDT
Nautical Twilight 5:48 AM CDT 7:55 PM CDT
Astronomical Twilight 5:19 AM CDT 8:24 PM CDT
Moon No Moon Rise 1:19 PM CDT (9/15)
Length of Visible Light 13h 10m
Length of Day
12h 21m
Tomorrow will be 1m 53s shorter.
Waning Gibbous, 50% of the Moon is Illuminated
Today
Waning Gibbous
Sep 15
Last Quarter
Sep 24
New
Oct 1
First Quarter
Oct 8
Full

Today's Extremes

State Highs State Lows

Community

WunderPhotos

Upload Photos

1,753,643 photos uploaded!

WunderBlogs® & News

Nearby

Snow Depth

Station Depth Elevation
No new snow has been reported.

Earthquake Activity

City Distance Mag. Time & Date
No recent earthquake activity has been reported nearby.
Minimum magnitude displayed is 2.5.

Coastal Water Temperatures

Place Temperature
No Stations Reporting

Nearby Weather Stations